This is the latest recevied weather packets stored in our database for station/object LRBV. If no packets are shown the sender has not sent any weather packets the latest 10 day(s).
| Time | Temp. | Humidity | Pressure | Rain* | Wind** | Luminosity | Snow |
|---|---|---|---|---|---|---|---|
| 1777187929 | 17.22° C | 39% | 1011 hPa | - | - | - | - |
| 1777187031 | 17.22° C | 39% | 1011 hPa | - | - | - | - |
| 1777186127 | 17.22° C | 39% | 1011 hPa | - | - | - | - |
| 1777185231 | 17.22° C | 39% | 1011 hPa | - | - | - | - |
| 1777184331 | 13.89° C | 51% | 1011 hPa | - | - | - | - |
| 1777183431 | 13.89° C | 51% | 1011 hPa | - | - | - | - |
| 1777182531 | 13.89° C | 48% | 1011 hPa | - | - | - | - |
| 1777181633 | 13.89° C | 48% | 1011 hPa | - | - | - | - |
| 1777180731 | 10° C | 62% | 1011 hPa | - | - | - | - |
| 1777179831 | 10° C | 62% | 1011 hPa | - | - | - | - |
| 1777178951 | 7.78° C | 71% | 1011 hPa | - | - | - | - |
| 1777178031 | 7.78° C | 71% | 1011 hPa | - | - | - | - |
| 1777177131 | 6.11° C | 81% | 1011 hPa | - | - | - | - |
| 1777176230 | 6.11° C | 81% | 1011 hPa | - | - | - | - |
| 1777175330 | 6.11° C | 76% | 1011 hPa | - | - | - | - |
| 1777174430 | 6.11° C | 76% | 1011 hPa | - | - | - | - |
| 1777173530 | 5° C | 81% | 1011 hPa | - | - | - | - |
| 1777172630 | 5° C | 81% | 1011 hPa | - | - | - | - |
| 1777171731 | 6.11° C | 76% | 1011 hPa | - | - | - | - |
| 1777170831 | 6.11° C | 76% | 1011 hPa | - | - | - | - |
| 1777169930 | 7.22° C | 76% | 1011 hPa | - | - | - | - |
| 1777169030 | 7.22° C | 76% | 1011 hPa | - | - | - | - |
| 1777168131 | 7.22° C | 76% | 1011 hPa | - | - | - | - |
| 1777167231 | 7.22° C | 76% | 1011 hPa | - | - | - | - |
| 1777166330 | 7.78° C | 71% | 1011 hPa | - | - | - | - |
* Rain since midnight (hover to see other rain measurements)
** Current wind speed in m/s (hover to see current wind gust speed)